sensor_id;sensor_type;location;lat;lon;timestamp;temperature;humidity
73576;DHT22;61859;49.204;8.140;2023-05-10T00:01:33;13.50;99.90
73576;DHT22;61859;49.204;8.140;2023-05-10T00:03:59;13.40;99.90
73576;DHT22;61859;49.204;8.140;2023-05-10T00:06:25;13.40;99.90
73576;DHT22;61859;49.204;8.140;2023-05-10T00:08:50;13.30;99.90
73576;DHT22;61859;49.204;8.140;2023-05-10T00:11:16;13.30;99.90
73576;DHT22;61859;49.204;8.140;2023-05-10T00:13:41;13.30;99.90
73576;DHT22;61859;49.204;8.140;2023-05-10T00:16:07;13.30;99.90
73576;DHT22;61859;49.204;8.140;2023-05-10T00:18:32;13.30;99.90
73576;DHT22;61859;49.204;8.140;2023-05-10T00:20:58;13.30;99.90
73576;DHT22;61859;49.204;8.140;2023-05-10T00:23:24;13.30;99.90
73576;DHT22;61859;49.204;8.140;2023-05-10T00:25:49;13.20;99.90
73576;DHT22;61859;49.204;8.140;2023-05-10T00:28:15;13.20;99.90
73576;DHT22;61859;49.204;8.140;2023-05-10T00:30:40;13.30;99.90
73576;DHT22;61859;49.204;8.140;2023-05-10T00:33:06;13.30;99.90
73576;DHT22;61859;49.204;8.140;2023-05-10T00:35:32;13.30;99.90
73576;DHT22;61859;49.204;8.140;2023-05-10T00:37:57;13.30;99.90
73576;DHT22;61859;49.204;8.140;2023-05-10T00:40:23;13.30;99.90
73576;DHT22;61859;49.204;8.140;2023-05-10T00:42:48;13.30;99.90
73576;DHT22;61859;49.204;8.140;2023-05-10T00:45:14;13.30;99.90
73576;DHT22;61859;49.204;8.140;2023-05-10T00:47:40;13.30;99.90
73576;DHT22;61859;49.204;8.140;2023-05-10T00:50:06;13.30;99.90
73576;DHT22;61859;49.204;8.140;2023-05-10T00:52:31;13.40;99.90
73576;DHT22;61859;49.204;8.140;2023-05-10T00:54:57;13.40;99.90
73576;DHT22;61859;49.204;8.140;2023-05-10T00:57:24;13.40;99.90
73576;DHT22;61859;49.204;8.140;2023-05-10T00:59:50;13.40;99.90
73576;DHT22;61859;49.204;8.140;2023-05-10T01:02:16;13.30;99.90
73576;DHT22;61859;49.204;8.140;2023-05-10T01:04:41;13.40;99.90
73576;DHT22;61859;49.204;8.140;2023-05-10T01:07:08;13.40;99.90
73576;DHT22;61859;49.204;8.140;2023-05-10T01:09:33;13.30;99.40
73576;DHT22;61859;49.204;8.140;2023-05-10T01:12:00;13.30;99.80
73576;DHT22;61859;49.204;8.140;2023-05-10T01:14:27;13.40;99.90
73576;DHT22;61859;49.204;8.140;2023-05-10T01:16:53;13.40;99.90
73576;DHT22;61859;49.204;8.140;2023-05-10T01:19:23;13.40;99.90
73576;DHT22;61859;49.204;8.140;2023-05-10T01:25:11;13.40;99.90
73576;DHT22;61859;49.204;8.140;2023-05-10T01:28:12;13.30;99.90
73576;DHT22;61859;49.204;8.140;2023-05-10T01:33:24;13.30;99.90
73576;DHT22;61859;49.204;8.140;2023-05-10T01:36:01;13.40;99.90
73576;DHT22;61859;49.204;8.140;2023-05-10T01:38:50;13.40;99.90
73576;DHT22;61859;49.204;8.140;2023-05-10T01:41:28;13.30;99.90
73576;DHT22;61859;49.204;8.140;2023-05-10T01:44:00;13.40;99.90
73576;DHT22;61859;49.204;8.140;2023-05-10T01:46:36;13.30;99.90
73576;DHT22;61859;49.204;8.140;2023-05-10T01:49:06;13.40;99.90
73576;DHT22;61859;49.204;8.140;2023-05-10T01:51:45;13.50;99.90
73576;DHT22;61859;49.204;8.140;2023-05-10T01:54:13;13.40;99.90
73576;DHT22;61859;49.204;8.140;2023-05-10T01:56:40;13.50;99.90
73576;DHT22;61859;49.204;8.140;2023-05-10T01:59:12;13.50;99.90
73576;DHT22;61859;49.204;8.140;2023-05-10T02:01:39;13.50;99.90
73576;DHT22;61859;49.204;8.140;2023-05-10T02:04:07;13.40;99.90
73576;DHT22;61859;49.204;8.140;2023-05-10T02:06:34;13.50;99.90
73576;DHT22;61859;49.204;8.140;2023-05-10T02:09:01;13.40;99.90
73576;DHT22;61859;49.204;8.140;2023-05-10T02:11:28;13.50;99.90
73576;DHT22;61859;49.204;8.140;2023-05-10T02:13:55;13.40;99.90
73576;DHT22;61859;49.204;8.140;2023-05-10T02:16:24;13.40;99.90
73576;DHT22;61859;49.204;8.140;2023-05-10T02:18:51;13.40;99.90
73576;DHT22;61859;49.204;8.140;2023-05-10T02:21:19;13.40;99.90
73576;DHT22;61859;49.204;8.140;2023-05-10T02:23:46;13.40;99.90
73576;DHT22;61859;49.204;8.140;2023-05-10T02:26:14;13.30;99.90
73576;DHT22;61859;49.204;8.140;2023-05-10T02:28:42;13.40;99.90
73576;DHT22;61859;49.204;8.140;2023-05-10T02:31:08;13.30;99.90
73576;DHT22;61859;49.204;8.140;2023-05-10T02:33:38;13.20;99.90
73576;DHT22;61859;49.204;8.140;2023-05-10T02:36:07;13.20;99.90
73576;DHT22;61859;49.204;8.140;2023-05-10T02:38:33;13.20;99.90
73576;DHT22;61859;49.204;8.140;2023-05-10T02:41:00;13.20;99.90
73576;DHT22;61859;49.204;8.140;2023-05-10T02:43:28;13.20;99.90
73576;DHT22;61859;49.204;8.140;2023-05-10T02:45:55;13.10;99.90
73576;DHT22;61859;49.204;8.140;2023-05-10T02:48:20;13.10;99.90
73576;DHT22;61859;49.204;8.140;2023-05-10T02:50:46;13.10;99.90
73576;DHT22;61859;49.204;8.140;2023-05-10T02:53:21;13.10;99.90
73576;DHT22;61859;49.204;8.140;2023-05-10T02:55:50;13.10;99.90
73576;DHT22;61859;49.204;8.140;2023-05-10T02:58:16;13.10;99.90
73576;DHT22;61859;49.204;8.140;2023-05-10T03:00:44;13.10;99.90
73576;DHT22;61859;49.204;8.140;2023-05-10T03:03:10;13.20;99.90
73576;DHT22;61859;49.204;8.140;2023-05-10T03:05:36;13.20;99.90
73576;DHT22;61859;49.204;8.140;2023-05-10T03:08:01;13.20;99.90
73576;DHT22;61859;49.204;8.140;2023-05-10T03:10:30;13.20;99.90
73576;DHT22;61859;49.204;8.140;2023-05-10T03:16:28;13.20;99.90
73576;DHT22;61859;49.204;8.140;2023-05-10T03:19:46;13.20;99.90
73576;DHT22;61859;49.204;8.140;2023-05-10T03:22:06;13.20;99.90
73576;DHT22;61859;49.204;8.140;2023-05-10T03:24:34;13.10;99.90
73576;DHT22;61859;49.204;8.140;2023-05-10T03:27:01;13.10;99.90
73576;DHT22;61859;49.204;8.140;2023-05-10T03:29:28;13.00;99.90
73576;DHT22;61859;49.204;8.140;2023-05-10T03:31:54;13.10;99.90
73576;DHT22;61859;49.204;8.140;2023-05-10T03:34:24;13.10;99.90
73576;DHT22;61859;49.204;8.140;2023-05-10T03:36:50;13.00;99.90
73576;DHT22;61859;49.204;8.140;2023-05-10T03:39:15;13.00;99.90
73576;DHT22;61859;49.204;8.140;2023-05-10T03:41:41;13.00;99.90
73576;DHT22;61859;49.204;8.140;2023-05-10T03:44:06;12.90;99.90
73576;DHT22;61859;49.204;8.140;2023-05-10T03:46:32;12.90;99.90
73576;DHT22;61859;49.204;8.140;2023-05-10T03:48:57;12.90;99.90
73576;DHT22;61859;49.204;8.140;2023-05-10T03:51:23;12.90;99.90
73576;DHT22;61859;49.204;8.140;2023-05-10T03:53:50;12.90;99.90
73576;DHT22;61859;49.204;8.140;2023-05-10T03:56:16;13.00;99.90
73576;DHT22;61859;49.204;8.140;2023-05-10T03:58:41;13.00;99.90
73576;DHT22;61859;49.204;8.140;2023-05-10T04:01:07;13.00;99.90
73576;DHT22;61859;49.204;8.140;2023-05-10T04:03:32;13.10;99.90
73576;DHT22;61859;49.204;8.140;2023-05-10T04:06:01;13.10;99.90
73576;DHT22;61859;49.204;8.140;2023-05-10T04:08:27;13.10;99.90
73576;DHT22;61859;49.204;8.140;2023-05-10T04:10:53;13.10;99.90
73576;DHT22;61859;49.204;8.140;2023-05-10T04:13:18;13.00;99.90
73576;DHT22;61859;49.204;8.140;2023-05-10T04:15:44;13.10;99.90
73576;DHT22;61859;49.204;8.140;2023-05-10T04:18:10;13.00;99.90
73576;DHT22;61859;49.204;8.140;2023-05-10T04:20:35;13.10;99.90
73576;DHT22;61859;49.204;8.140;2023-05-10T04:23:01;13.20;99.90
73576;DHT22;61859;49.204;8.140;2023-05-10T04:25:26;13.20;99.90
73576;DHT22;61859;49.204;8.140;2023-05-10T04:27:52;13.20;99.90
73576;DHT22;61859;49.204;8.140;2023-05-10T04:30:17;13.20;99.90
73576;DHT22;61859;49.204;8.140;2023-05-10T04:32:43;13.30;99.90
73576;DHT22;61859;49.204;8.140;2023-05-10T04:35:09;13.30;99.90
73576;DHT22;61859;49.204;8.140;2023-05-10T04:37:35;13.40;99.90
73576;DHT22;61859;49.204;8.140;2023-05-10T04:40:02;13.40;99.90
73576;DHT22;61859;49.204;8.140;2023-05-10T04:42:28;13.30;99.90
73576;DHT22;61859;49.204;8.140;2023-05-10T04:44:54;13.30;99.90
73576;DHT22;61859;49.204;8.140;2023-05-10T04:47:20;13.40;99.90
73576;DHT22;61859;49.204;8.140;2023-05-10T04:49:45;13.40;99.90
73576;DHT22;61859;49.204;8.140;2023-05-10T04:52:11;13.40;99.90
73576;DHT22;61859;49.204;8.140;2023-05-10T04:54:36;13.40;99.90
73576;DHT22;61859;49.204;8.140;2023-05-10T04:57:02;13.50;99.90
73576;DHT22;61859;49.204;8.140;2023-05-10T04:59:28;13.40;99.90
73576;DHT22;61859;49.204;8.140;2023-05-10T05:01:53;13.50;99.90
73576;DHT22;61859;49.204;8.140;2023-05-10T05:04:19;13.40;99.90
73576;DHT22;61859;49.204;8.140;2023-05-10T05:06:44;13.40;99.90
73576;DHT22;61859;49.204;8.140;2023-05-10T05:09:10;13.50;99.90
73576;DHT22;61859;49.204;8.140;2023-05-10T05:11:35;13.40;99.90
73576;DHT22;61859;49.204;8.140;2023-05-10T05:14:01;13.40;99.90
73576;DHT22;61859;49.204;8.140;2023-05-10T05:16:26;13.40;99.90
73576;DHT22;61859;49.204;8.140;2023-05-10T05:18:52;13.40;99.90
73576;DHT22;61859;49.204;8.140;2023-05-10T05:21:18;13.40;99.90
73576;DHT22;61859;49.204;8.140;2023-05-10T05:23:45;13.50;99.90
73576;DHT22;61859;49.204;8.140;2023-05-10T05:26:10;13.50;99.90
73576;DHT22;61859;49.204;8.140;2023-05-10T05:28:36;13.50;99.90
73576;DHT22;61859;49.204;8.140;2023-05-10T05:31:03;13.40;99.90
73576;DHT22;61859;49.204;8.140;2023-05-10T05:33:29;13.50;99.90
73576;DHT22;61859;49.204;8.140;2023-05-10T05:35:55;13.50;99.90
73576;DHT22;61859;49.204;8.140;2023-05-10T05:38:20;13.60;99.90
73576;DHT22;61859;49.204;8.140;2023-05-10T05:40:46;13.60;99.90
73576;DHT22;61859;49.204;8.140;2023-05-10T05:43:11;13.60;99.90
73576;DHT22;61859;49.204;8.140;2023-05-10T05:45:37;13.60;99.90
73576;DHT22;61859;49.204;8.140;2023-05-10T05:48:02;13.60;99.90
73576;DHT22;61859;49.204;8.140;2023-05-10T05:50:28;13.60;99.90
73576;DHT22;61859;49.204;8.140;2023-05-10T05:52:53;13.60;99.90
73576;DHT22;61859;49.204;8.140;2023-05-10T05:55:19;13.70;99.90
73576;DHT22;61859;49.204;8.140;2023-05-10T05:57:45;13.70;99.80
73576;DHT22;61859;49.204;8.140;2023-05-10T06:00:11;13.80;99.40
73576;DHT22;61859;49.204;8.140;2023-05-10T06:02:36;13.80;98.10
73576;DHT22;61859;49.204;8.140;2023-05-10T06:05:02;13.80;98.20
73576;DHT22;61859;49.204;8.140;2023-05-10T06:07:27;13.80;98.80
73576;DHT22;61859;49.204;8.140;2023-05-10T06:09:53;13.70;98.60
73576;DHT22;61859;49.204;8.140;2023-05-10T06:12:18;13.70;98.40
73576;DHT22;61859;49.204;8.140;2023-05-10T06:14:44;13.70;98.60
73576;DHT22;61859;49.204;8.140;2023-05-10T06:17:09;13.70;99.00
73576;DHT22;61859;49.204;8.140;2023-05-10T06:19:35;13.70;98.40
73576;DHT22;61859;49.204;8.140;2023-05-10T06:22:02;13.70;98.40
73576;DHT22;61859;49.204;8.140;2023-05-10T06:24:27;13.70;98.30
73576;DHT22;61859;49.204;8.140;2023-05-10T06:26:53;13.80;98.60
73576;DHT22;61859;49.204;8.140;2023-05-10T06:29:18;13.90;98.50
73576;DHT22;61859;49.204;8.140;2023-05-10T06:31:44;14.10;97.70
73576;DHT22;61859;49.204;8.140;2023-05-10T06:34:09;14.20;96.50
73576;DHT22;61859;49.204;8.140;2023-05-10T06:36:36;14.40;95.50
73576;DHT22;61859;49.204;8.140;2023-05-10T06:39:02;14.40;95.60
73576;DHT22;61859;49.204;8.140;2023-05-10T06:41:28;14.60;96.20
73576;DHT22;61859;49.204;8.140;2023-05-10T06:43:53;14.70;95.40
73576;DHT22;61859;49.204;8.140;2023-05-10T06:46:19;15.00;95.10
73576;DHT22;61859;49.204;8.140;2023-05-10T06:48:44;15.20;92.50
73576;DHT22;61859;49.204;8.140;2023-05-10T06:51:10;15.20;92.50
73576;DHT22;61859;49.204;8.140;2023-05-10T06:53:35;15.20;91.80
73576;DHT22;61859;49.204;8.140;2023-05-10T06:56:01;15.20;92.00
73576;DHT22;61859;49.204;8.140;2023-05-10T06:58:28;15.30;91.10
73576;DHT22;61859;49.204;8.140;2023-05-10T07:00:53;15.30;90.30
73576;DHT22;61859;49.204;8.140;2023-05-10T07:03:19;15.40;91.00
73576;DHT22;61859;49.204;8.140;2023-05-10T07:05:44;15.50;89.00
73576;DHT22;61859;49.204;8.140;2023-05-10T07:08:10;15.50;88.80
73576;DHT22;61859;49.204;8.140;2023-05-10T07:10:35;15.50;88.80
73576;DHT22;61859;49.204;8.140;2023-05-10T07:13:01;15.70;89.40
73576;DHT22;61859;49.204;8.140;2023-05-10T07:15:26;15.80;89.80
73576;DHT22;61859;49.204;8.140;2023-05-10T07:17:52;16.00;87.10
73576;DHT22;61859;49.204;8.140;2023-05-10T07:20:18;16.20;85.60
73576;DHT22;61859;49.204;8.140;2023-05-10T07:22:43;16.20;86.20
73576;DHT22;61859;49.204;8.140;2023-05-10T07:25:09;16.30;85.40
73576;DHT22;61859;49.204;8.140;2023-05-10T07:27:35;16.40;83.70
73576;DHT22;61859;49.204;8.140;2023-05-10T07:30:00;16.40;83.20
73576;DHT22;61859;49.204;8.140;2023-05-10T07:32:26;16.40;82.40
73576;DHT22;61859;49.204;8.140;2023-05-10T07:34:52;16.50;81.40
73576;DHT22;61859;49.204;8.140;2023-05-10T07:37:17;16.50;81.90
73576;DHT22;61859;49.204;8.140;2023-05-10T07:39:43;16.60;81.50
73576;DHT22;61859;49.204;8.140;2023-05-10T07:42:09;16.60;81.20
73576;DHT22;61859;49.204;8.140;2023-05-10T07:44:34;16.80;79.50
73576;DHT22;61859;49.204;8.140;2023-05-10T07:47:00;16.80;79.00
73576;DHT22;61859;49.204;8.140;2023-05-10T07:49:25;16.70;78.80
73576;DHT22;61859;49.204;8.140;2023-05-10T07:51:51;16.80;79.50
73576;DHT22;61859;49.204;8.140;2023-05-10T07:54:17;16.80;78.80
73576;DHT22;61859;49.204;8.140;2023-05-10T07:56:42;16.80;80.30
73576;DHT22;61859;49.204;8.140;2023-05-10T07:59:15;16.70;80.10
73576;DHT22;61859;49.204;8.140;2023-05-10T08:01:41;16.70;79.20
73576;DHT22;61859;49.204;8.140;2023-05-10T08:04:07;16.60;80.10
73576;DHT22;61859;49.204;8.140;2023-05-10T08:06:34;16.60;80.00
73576;DHT22;61859;49.204;8.140;2023-05-10T08:08:59;16.70;80.50
73576;DHT22;61859;49.204;8.140;2023-05-10T08:11:25;16.70;80.90
73576;DHT22;61859;49.204;8.140;2023-05-10T08:13:51;16.70;80.90
73576;DHT22;61859;49.204;8.140;2023-05-10T08:16:17;16.60;81.70
73576;DHT22;61859;49.204;8.140;2023-05-10T08:18:44;16.70;82.40
73576;DHT22;61859;49.204;8.140;2023-05-10T08:21:10;16.80;81.50
73576;DHT22;61859;49.204;8.140;2023-05-10T08:23:36;17.00;81.00
73576;DHT22;61859;49.204;8.140;2023-05-10T08:26:02;17.30;80.10
73576;DHT22;61859;49.204;8.140;2023-05-10T08:28:28;17.40;79.40
73576;DHT22;61859;49.204;8.140;2023-05-10T08:30:53;17.80;78.90
73576;DHT22;61859;49.204;8.140;2023-05-10T08:33:19;17.90;74.30
73576;DHT22;61859;49.204;8.140;2023-05-10T08:35:45;17.70;76.50
73576;DHT22;61859;49.204;8.140;2023-05-10T08:38:10;17.60;75.20
73576;DHT22;61859;49.204;8.140;2023-05-10T08:40:43;17.10;76.20
73576;DHT22;61859;49.204;8.140;2023-05-10T08:43:11;16.70;78.40
73576;DHT22;61859;49.204;8.140;2023-05-10T08:45:38;16.50;79.10
73576;DHT22;61859;49.204;8.140;2023-05-10T08:48:08;16.40;80.00
73576;DHT22;61859;49.204;8.140;2023-05-10T08:50:39;16.50;79.60
73576;DHT22;61859;49.204;8.140;2023-05-10T08:53:15;16.60;80.20
73576;DHT22;61859;49.204;8.140;2023-05-10T08:55:41;17.10;78.30
73576;DHT22;61859;49.204;8.140;2023-05-10T08:58:08;17.60;78.00
73576;DHT22;61859;49.204;8.140;2023-05-10T09:00:35;17.90;76.40
73576;DHT22;61859;49.204;8.140;2023-05-10T09:03:02;17.80;76.20
73576;DHT22;61859;49.204;8.140;2023-05-10T09:05:28;17.90;75.70
73576;DHT22;61859;49.204;8.140;2023-05-10T09:07:53;17.80;74.30
73576;DHT22;61859;49.204;8.140;2023-05-10T09:10:19;17.90;74.70
73576;DHT22;61859;49.204;8.140;2023-05-10T09:12:45;18.30;73.80
73576;DHT22;61859;49.204;8.140;2023-05-10T09:15:17;18.30;72.40
73576;DHT22;61859;49.204;8.140;2023-05-10T09:17:44;18.50;73.40
73576;DHT22;61859;49.204;8.140;2023-05-10T09:20:11;18.60;70.00
73576;DHT22;61859;49.204;8.140;2023-05-10T09:22:36;18.20;70.90
73576;DHT22;61859;49.204;8.140;2023-05-10T09:25:11;18.00;72.50
73576;DHT22;61859;49.204;8.140;2023-05-10T09:27:38;18.00;71.80
73576;DHT22;61859;49.204;8.140;2023-05-10T09:30:05;18.00;68.60
73576;DHT22;61859;49.204;8.140;2023-05-10T09:32:42;17.80;69.40
73576;DHT22;61859;49.204;8.140;2023-05-10T09:35:15;17.60;69.60
73576;DHT22;61859;49.204;8.140;2023-05-10T09:37:43;17.70;69.20
73576;DHT22;61859;49.204;8.140;2023-05-10T09:40:14;17.90;69.10
73576;DHT22;61859;49.204;8.140;2023-05-10T09:42:42;18.50;69.60
73576;DHT22;61859;49.204;8.140;2023-05-10T09:45:08;18.80;66.30
73576;DHT22;61859;49.204;8.140;2023-05-10T09:47:35;18.60;67.60
73576;DHT22;61859;49.204;8.140;2023-05-10T09:50:02;18.50;67.90
73576;DHT22;61859;49.204;8.140;2023-05-10T09:52:48;18.10;70.60
73576;DHT22;61859;49.204;8.140;2023-05-10T09:55:16;17.90;71.10
73576;DHT22;61859;49.204;8.140;2023-05-10T09:57:41;17.40;71.70
73576;DHT22;61859;49.204;8.140;2023-05-10T10:00:07;17.10;73.70
73576;DHT22;61859;49.204;8.140;2023-05-10T10:02:35;17.00;74.10
73576;DHT22;61859;49.204;8.140;2023-05-10T10:05:02;17.00;71.90
73576;DHT22;61859;49.204;8.140;2023-05-10T10:07:31;16.90;71.10
73576;DHT22;61859;49.204;8.140;2023-05-10T10:09:56;17.10;72.70
73576;DHT22;61859;49.204;8.140;2023-05-10T10:12:24;17.30;70.60
73576;DHT22;61859;49.204;8.140;2023-05-10T10:14:50;17.60;70.80
73576;DHT22;61859;49.204;8.140;2023-05-10T10:17:16;17.90;69.20
73576;DHT22;61859;49.204;8.140;2023-05-10T10:19:42;18.20;68.40
73576;DHT22;61859;49.204;8.140;2023-05-10T10:22:08;18.60;68.10
73576;DHT22;61859;49.204;8.140;2023-05-10T10:24:38;18.90;68.00
73576;DHT22;61859;49.204;8.140;2023-05-10T10:31:10;19.90;63.40
73576;DHT22;61859;49.204;8.140;2023-05-10T10:35:34;20.30;62.10
73576;DHT22;61859;49.204;8.140;2023-05-10T10:38:00;20.20;62.60
73576;DHT22;61859;49.204;8.140;2023-05-10T10:40:30;19.90;63.50
73576;DHT22;61859;49.204;8.140;2023-05-10T10:42:57;19.50;64.00
73576;DHT22;61859;49.204;8.140;2023-05-10T10:45:24;19.30;65.70
73576;DHT22;61859;49.204;8.140;2023-05-10T10:48:21;19.00;64.80
73576;DHT22;61859;49.204;8.140;2023-05-10T10:50:47;18.60;65.50
73576;DHT22;61859;49.204;8.140;2023-05-10T10:53:13;18.00;67.00
73576;DHT22;61859;49.204;8.140;2023-05-10T10:55:49;17.50;66.90
73576;DHT22;61859;49.204;8.140;2023-05-10T10:58:31;17.00;67.30
73576;DHT22;61859;49.204;8.140;2023-05-10T11:01:12;16.60;69.40
73576;DHT22;61859;49.204;8.140;2023-05-10T11:03:38;16.40;70.40
73576;DHT22;61859;49.204;8.140;2023-05-10T11:06:04;16.30;71.70
73576;DHT22;61859;49.204;8.140;2023-05-10T11:08:31;16.40;72.20
73576;DHT22;61859;49.204;8.140;2023-05-10T11:13:34;16.60;70.90
73576;DHT22;61859;49.204;8.140;2023-05-10T11:16:13;16.70;69.20
73576;DHT22;61859;49.204;8.140;2023-05-10T11:18:39;16.80;70.40
73576;DHT22;61859;49.204;8.140;2023-05-10T11:21:06;17.10;67.30
73576;DHT22;61859;49.204;8.140;2023-05-10T11:23:55;17.20;67.30
73576;DHT22;61859;49.204;8.140;2023-05-10T11:26:32;17.70;65.20
73576;DHT22;61859;49.204;8.140;2023-05-10T11:28:59;18.10;62.70
73576;DHT22;61859;49.204;8.140;2023-05-10T11:31:27;18.20;62.00
73576;DHT22;61859;49.204;8.140;2023-05-10T11:33:54;18.30;62.20
73576;DHT22;61859;49.204;8.140;2023-05-10T11:36:23;18.40;61.70
73576;DHT22;61859;49.204;8.140;2023-05-10T11:38:48;18.60;61.70
73576;DHT22;61859;49.204;8.140;2023-05-10T11:41:16;19.20;60.60
73576;DHT22;61859;49.204;8.140;2023-05-10T11:43:42;20.10;57.20
73576;DHT22;61859;49.204;8.140;2023-05-10T11:46:10;21.00;55.00
73576;DHT22;61859;49.204;8.140;2023-05-10T11:48:39;21.00;54.50
73576;DHT22;61859;49.204;8.140;2023-05-10T11:51:04;21.10;53.80
73576;DHT22;61859;49.204;8.140;2023-05-10T11:53:31;21.00;54.20
73576;DHT22;61859;49.204;8.140;2023-05-10T11:56:23;20.90;53.20
73576;DHT22;61859;49.204;8.140;2023-05-10T11:58:57;20.00;54.80
73576;DHT22;61859;49.204;8.140;2023-05-10T12:01:24;19.50;56.20
73576;DHT22;61859;49.204;8.140;2023-05-10T12:03:51;19.40;55.60
73576;DHT22;61859;49.204;8.140;2023-05-10T12:06:19;19.70;55.50
73576;DHT22;61859;49.204;8.140;2023-05-10T12:08:46;20.20;53.10
73576;DHT22;61859;49.204;8.140;2023-05-10T12:11:12;20.60;54.00
73576;DHT22;61859;49.204;8.140;2023-05-10T12:13:42;20.80;51.40
73576;DHT22;61859;49.204;8.140;2023-05-10T12:18:41;20.90;51.80
73576;DHT22;61859;49.204;8.140;2023-05-10T12:21:09;20.60;52.60
73576;DHT22;61859;49.204;8.140;2023-05-10T12:23:36;20.60;53.40
73576;DHT22;61859;49.204;8.140;2023-05-10T12:26:05;20.30;52.30
73576;DHT22;61859;49.204;8.140;2023-05-10T12:28:31;20.10;53.60
73576;DHT22;61859;49.204;8.140;2023-05-10T12:30:58;19.80;53.90
73576;DHT22;61859;49.204;8.140;2023-05-10T12:33:24;20.00;53.10
73576;DHT22;61859;49.204;8.140;2023-05-10T12:35:52;20.10;53.00
73576;DHT22;61859;49.204;8.140;2023-05-10T12:38:25;20.60;54.50
73576;DHT22;61859;49.204;8.140;2023-05-10T12:40:51;20.70;52.10
73576;DHT22;61859;49.204;8.140;2023-05-10T12:43:17;20.70;51.20
73576;DHT22;61859;49.204;8.140;2023-05-10T12:45:42;21.00;51.90
73576;DHT22;61859;49.204;8.140;2023-05-10T12:48:13;21.20;50.10
73576;DHT22;61859;49.204;8.140;2023-05-10T12:50:38;21.30;49.90
73576;DHT22;61859;49.204;8.140;2023-05-10T12:53:04;21.20;49.40
73576;DHT22;61859;49.204;8.140;2023-05-10T12:55:29;21.60;49.00
73576;DHT22;61859;49.204;8.140;2023-05-10T12:57:55;22.10;48.80
73576;DHT22;61859;49.204;8.140;2023-05-10T13:00:20;22.50;46.40
73576;DHT22;61859;49.204;8.140;2023-05-10T13:02:46;22.30;45.60
73576;DHT22;61859;49.204;8.140;2023-05-10T13:05:12;21.60;47.30
73576;DHT22;61859;49.204;8.140;2023-05-10T13:07:38;21.40;45.80
73576;DHT22;61859;49.204;8.140;2023-05-10T13:10:05;21.40;47.20
73576;DHT22;61859;49.204;8.140;2023-05-10T13:12:31;21.60;45.60
73576;DHT22;61859;49.204;8.140;2023-05-10T13:14:56;21.30;46.30
73576;DHT22;61859;49.204;8.140;2023-05-10T13:17:22;21.30;47.70
73576;DHT22;61859;49.204;8.140;2023-05-10T13:19:48;21.10;50.50
73576;DHT22;61859;49.204;8.140;2023-05-10T13:22:13;21.20;51.00
73576;DHT22;61859;49.204;8.140;2023-05-10T13:24:39;21.40;49.00
73576;DHT22;61859;49.204;8.140;2023-05-10T13:27:04;21.50;48.90
73576;DHT22;61859;49.204;8.140;2023-05-10T13:29:30;21.90;49.30
73576;DHT22;61859;49.204;8.140;2023-05-10T13:31:56;22.20;45.90
73576;DHT22;61859;49.204;8.140;2023-05-10T13:34:21;22.70;46.10
73576;DHT22;61859;49.204;8.140;2023-05-10T13:36:47;22.90;46.30
73576;DHT22;61859;49.204;8.140;2023-05-10T13:39:14;23.10;45.00
73576;DHT22;61859;49.204;8.140;2023-05-10T13:41:39;23.20;43.50
73576;DHT22;61859;49.204;8.140;2023-05-10T13:44:05;22.90;46.50
73576;DHT22;61859;49.204;8.140;2023-05-10T13:46:30;22.70;46.90
73576;DHT22;61859;49.204;8.140;2023-05-10T13:48:56;23.00;45.10
73576;DHT22;61859;49.204;8.140;2023-05-10T13:51:22;23.20;45.90
73576;DHT22;61859;49.204;8.140;2023-05-10T13:53:48;23.40;45.00
73576;DHT22;61859;49.204;8.140;2023-05-10T13:56:14;23.20;45.00
73576;DHT22;61859;49.204;8.140;2023-05-10T13:58:39;23.60;45.40
73576;DHT22;61859;49.204;8.140;2023-05-10T14:01:05;24.20;44.20
73576;DHT22;61859;49.204;8.140;2023-05-10T14:03:30;24.30;44.00
73576;DHT22;61859;49.204;8.140;2023-05-10T14:05:56;24.00;41.90
73576;DHT22;61859;49.204;8.140;2023-05-10T14:08:22;23.70;43.30
73576;DHT22;61859;49.204;8.140;2023-05-10T14:10:47;23.20;43.80
73576;DHT22;61859;49.204;8.140;2023-05-10T14:13:14;23.10;46.50
73576;DHT22;61859;49.204;8.140;2023-05-10T14:15:40;23.40;43.70
73576;DHT22;61859;49.204;8.140;2023-05-10T14:18:06;23.90;43.90
73576;DHT22;61859;49.204;8.140;2023-05-10T14:20:32;24.30;42.00
73576;DHT22;61859;49.204;8.140;2023-05-10T14:22:59;24.10;41.60
73576;DHT22;61859;49.204;8.140;2023-05-10T14:25:25;24.30;43.30
73576;DHT22;61859;49.204;8.140;2023-05-10T14:27:50;24.30;42.40
73576;DHT22;61859;49.204;8.140;2023-05-10T14:30:16;23.80;43.20
73576;DHT22;61859;49.204;8.140;2023-05-10T14:32:42;23.70;43.60
73576;DHT22;61859;49.204;8.140;2023-05-10T14:35:08;23.90;43.20
73576;DHT22;61859;49.204;8.140;2023-05-10T14:37:34;23.90;43.10
73576;DHT22;61859;49.204;8.140;2023-05-10T14:39:59;23.80;43.90
73576;DHT22;61859;49.204;8.140;2023-05-10T14:42:25;23.90;42.90
73576;DHT22;61859;49.204;8.140;2023-05-10T14:44:51;24.20;42.70
73576;DHT22;61859;49.204;8.140;2023-05-10T14:47:16;24.70;41.50
73576;DHT22;61859;49.204;8.140;2023-05-10T14:49:42;25.40;42.20
73576;DHT22;61859;49.204;8.140;2023-05-10T14:52:07;25.80;40.70
73576;DHT22;61859;49.204;8.140;2023-05-10T14:54:33;25.90;40.80
73576;DHT22;61859;49.204;8.140;2023-05-10T14:56:59;26.00;40.00
73576;DHT22;61859;49.204;8.140;2023-05-10T14:59:25;25.90;38.70
73576;DHT22;61859;49.204;8.140;2023-05-10T15:01:51;25.00;40.20
73576;DHT22;61859;49.204;8.140;2023-05-10T15:04:16;24.50;41.20
73576;DHT22;61859;49.204;8.140;2023-05-10T15:06:42;23.50;43.20
73576;DHT22;61859;49.204;8.140;2023-05-10T15:09:08;23.00;43.00
73576;DHT22;61859;49.204;8.140;2023-05-10T15:11:34;22.90;44.40
73576;DHT22;61859;49.204;8.140;2023-05-10T15:14:00;22.50;44.30
73576;DHT22;61859;49.204;8.140;2023-05-10T15:16:26;22.40;45.10
73576;DHT22;61859;49.204;8.140;2023-05-10T15:18:51;22.50;44.80
73576;DHT22;61859;49.204;8.140;2023-05-10T15:21:17;22.50;46.00
73576;DHT22;61859;49.204;8.140;2023-05-10T15:23:42;22.40;44.50
73576;DHT22;61859;49.204;8.140;2023-05-10T15:26:08;22.10;45.00
73576;DHT22;61859;49.204;8.140;2023-05-10T15:28:33;21.80;46.80
73576;DHT22;61859;49.204;8.140;2023-05-10T15:31:00;21.60;46.40
73576;DHT22;61859;49.204;8.140;2023-05-10T15:33:25;21.20;47.30
73576;DHT22;61859;49.204;8.140;2023-05-10T15:35:52;20.80;48.70
73576;DHT22;61859;49.204;8.140;2023-05-10T15:38:19;20.50;49.30
73576;DHT22;61859;49.204;8.140;2023-05-10T15:40:44;20.30;49.10
73576;DHT22;61859;49.204;8.140;2023-05-10T15:43:10;20.30;49.90
73576;DHT22;61859;49.204;8.140;2023-05-10T15:45:35;20.80;50.50
73576;DHT22;61859;49.204;8.140;2023-05-10T15:48:01;20.80;49.10
73576;DHT22;61859;49.204;8.140;2023-05-10T15:50:26;20.50;49.50